Time;durP1;ratioP1;P1;durP2;ratioP2;P2;SDS_P1;SDS_P2;PMS_P1;PMS_P2;Temp;Humidity;BMP_temperature;BMP_pressure;BME280_temperature;BME280_humidity;BME280_pressure;Samples;Min_cycle;Max_cycle;Signal;HPM_P1;HPM_P2
2021/06/29 00:00:26;;;;;;;10.10;5.58;;;;;;;23.41;55.60;100089.09;1776375;79;21635;-82
2021/06/29 00:03:02;;;;;;;8.13;5.53;;;;;;;23.44;55.67;100080.52;1748507;78;21068;-82
2021/06/29 00:05:29;;;;;;;9.38;5.58;;;;;;;23.52;55.59;100079.30;1765779;77;21054;-82
2021/06/29 00:07:55;;;;;;;;;;;;;;;23.60;55.22;100076.23;1757518;79;21110;-81
2021/06/29 00:10:23;;;;;;;8.47;5.20;;;;;;;23.70;55.00;100077.45;1761679;80;20453;-82
2021/06/29 00:12:48;;;;;;;10.23;5.20;;;;;;;23.74;54.60;100074.53;1755032;80;21768;-82
2021/06/29 00:15:15;;;;;;;9.53;5.78;;;;;;;23.76;54.71;100073.78;1761853;80;21165;-81
2021/06/29 00:17:40;;;;;;;7.33;5.20;;;;;;;23.78;54.95;100070.30;1747163;79;21041;-81
2021/06/29 00:20:08;;;;;;;9.13;5.55;;;;;;;23.83;54.75;100069.02;1762776;78;21135;-82
2021/06/29 00:22:33;;;;;;;15.45;6.62;;;;;;;23.87;54.75;100069.39;1770379;79;21091;-81
2021/06/29 00:24:59;;;;;;;7.67;5.70;;;;;;;23.82;55.17;100063.36;1770491;79;20950;-81
2021/06/29 00:27:25;;;;;;;12.90;5.78;;;;;;;23.80;55.24;100064.12;1749068;79;20977;-81
2021/06/29 00:29:51;;;;;;;10.08;6.08;;;;;;;23.81;55.34;100065.77;1747483;79;20961;-81
2021/06/29 00:32:16;;;;;;;14.38;5.70;;;;;;;23.77;55.48;100062.75;1778384;79;20929;-82
2021/06/29 00:34:42;;;;;;;9.13;5.85;;;;;;;23.84;55.23;100063.95;1748564;79;21221;-81
2021/06/29 00:37:08;;;;;;;8.68;5.50;;;;;;;23.84;55.41;100062.61;1761038;79;21216;-81
2021/06/29 00:39:34;;;;;;;9.20;5.75;;;;;;;23.80;55.67;100054.68;1777545;79;21130;-81
2021/06/29 00:41:59;;;;;;;7.72;5.47;;;;;;;23.78;55.79;100056.81;1765091;78;20873;-82
2021/06/29 00:44:25;;;;;;;7.87;5.15;;;;;;;23.58;56.66;100054.06;1760670;80;20872;-81
2021/06/29 00:46:53;;;;;;;8.40;5.30;;;;;;;23.36;57.33;100053.98;1757464;81;21025;-81
2021/06/29 00:49:19;;;;;;;7.10;5.15;;;;;;;23.34;57.43;100060.66;1770710;78;21100;-81
2021/06/29 00:51:45;;;;;;;8.73;5.20;;;;;;;23.29;57.40;100060.87;1774387;78;21051;-82
2021/06/29 00:54:12;;;;;;;10.18;5.95;;;;;;;23.15;57.77;100055.52;1764693;78;20977;-81
2021/06/29 00:56:38;;;;;;;10.98;5.75;;;;;;;23.06;57.91;100051.55;1776625;77;21009;-80
2021/06/29 00:59:04;;;;;;;9.20;6.08;;;;;;;23.03;58.12;100051.48;1786480;76;20868;-81
2021/06/29 01:01:29;;;;;;;8.88;6.10;;;;;;;22.91;58.65;100058.25;1764530;80;21700;-81
2021/06/29 01:03:55;;;;;;;8.93;6.50;;;;;;;22.84;59.01;100057.59;1753424;79;21141;-81
2021/06/29 01:06:21;;;;;;;9.30;6.08;;;;;;;22.77;59.28;100056.91;1747430;79;21161;-81
2021/06/29 01:08:47;;;;;;;11.63;7.10;;;;;;;22.81;59.48;100054.04;1763998;79;21147;-81
2021/06/29 01:11:12;;;;;;;11.03;6.85;;;;;;;22.43;60.53;100043.30;1755390;79;20874;-81
2021/06/29 01:13:43;;;;;;;11.43;6.80;;;;;;;22.61;60.29;100054.95;1754464;79;20896;-81
2021/06/29 01:16:09;;;;;;;8.88;6.25;;;;;;;22.58;60.06;100058.42;1765020;79;21218;-82
2021/06/29 01:18:38;;;;;;;12.80;6.50;;;;;;;22.39;60.31;100055.61;1762614;81;21114;-81
2021/06/29 01:21:05;;;;;;;10.85;6.10;;;;;;;22.38;60.17;100056.66;1753622;78;21241;-81
2021/06/29 01:23:31;;;;;;;9.63;6.15;;;;;;;22.32;60.31;100054.91;1770412;79;21406;-81
2021/06/29 01:26:20;;;;;;;8.10;5.93;;;;;;;22.47;59.73;100059.27;1763255;79;21569;-81
2021/06/29 01:31:15;;;;;;;10.72;6.10;;;;;;;22.44;59.47;100055.71;1768485;80;20987;-82
2021/06/29 01:33:42;;;;;;;9.73;5.97;;;;;;;22.46;59.04;100054.94;1763044;80;21076;-82
2021/06/29 01:36:09;;;;;;;8.15;5.90;;;;;;;22.48;58.99;100056.05;1762465;80;21076;-81
2021/06/29 01:38:35;;;;;;;8.95;5.83;;;;;;;22.40;58.97;100058.58;1747812;79;21012;-82
2021/06/29 01:41:01;;;;;;;8.25;5.70;;;;;;;22.42;58.69;100057.83;1754533;79;21320;-81
2021/06/29 01:43:31;;;;;;;9.48;5.50;;;;;;;22.44;58.73;100054.36;1768885;79;20882;-82
2021/06/29 01:45:55;;;;;;;8.90;5.60;;;;;;;22.48;58.69;100043.42;1761808;79;21084;-81
2021/06/29 01:48:23;;;;;;;12.33;6.15;;;;;;;22.42;58.67;100043.03;1777740;79;21082;-81
2021/06/29 01:50:50;;;;;;;9.48;5.25;;;;;;;22.47;58.32;100040.44;1760720;79;28240;-81
2021/06/29 01:53:16;;;;;;;7.35;5.28;;;;;;;22.40;58.06;100037.89;1747479;79;21226;-80
2021/06/29 01:55:41;;;;;;;8.48;5.58;;;;;;;22.42;58.42;100033.61;1754370;79;21033;-82
2021/06/29 01:58:07;;;;;;;7.78;5.42;;;;;;;22.51;58.17;100031.35;1752896;79;21000;-80
2021/06/29 02:00:33;;;;;;;9.53;5.53;;;;;;;22.56;58.13;100024.20;1771067;77;20909;-80
2021/06/29 02:03:00;;;;;;;8.20;5.45;;;;;;;22.65;57.38;100026.52;1765216;78;21988;-81
2021/06/29 02:05:25;;;;;;;7.90;5.43;;;;;;;22.58;57.24;100028.81;1747766;79;21837;-79
2021/06/29 02:07:51;;;;;;;7.15;5.12;;;;;;;22.47;58.52;100025.64;1753572;79;21968;-80
2021/06/29 02:10:17;;;;;;;8.90;5.35;;;;;;;22.42;58.65;100018.81;1777799;79;20979;-80
2021/06/29 02:12:44;;;;;;;8.63;5.22;;;;;;;22.48;58.89;100023.25;1748326;79;20882;-80
2021/06/29 02:15:11;;;;;;;9.90;5.45;;;;;;;22.57;58.85;100025.02;1760697;79;21082;-80
2021/06/29 02:17:36;;;;;;;9.00;5.17;;;;;;;22.54;58.83;100019.61;1756992;79;22022;-80
2021/06/29 02:20:05;;;;;;;9.85;5.67;;;;;;;22.53;59.09;100019.30;1755185;79;21173;-81
2021/06/29 02:22:31;;;;;;;9.05;5.33;;;;;;;22.57;59.02;100023.13;1758268;79;21612;-80
2021/06/29 02:24:57;;;;;;;10.30;5.45;;;;;;;22.51;58.00;100027.31;1788532;78;21054;-80
2021/06/29 02:27:23;;;;;;;7.53;5.08;;;;;;;22.28;57.74;100018.73;1765170;79;20886;-80
2021/06/29 02:29:49;;;;;;;10.25;5.42;;;;;;;22.23;58.29;100021.62;1756829;79;21099;-81
2021/06/29 02:32:15;;;;;;;7.50;5.10;;;;;;;22.15;58.70;100019.81;1755332;79;21383;-81
2021/06/29 02:34:41;;;;;;;10.30;5.40;;;;;;;22.12;58.96;100022.44;1755471;79;21787;-81
2021/06/29 02:37:07;;;;;;;9.73;5.40;;;;;;;22.09;58.85;100028.83;1750970;79;20870;-80
2021/06/29 02:39:33;;;;;;;10.10;5.80;;;;;;;22.04;59.24;100026.84;1765509;79;21135;-80
2021/06/29 02:41:58;;;;;;;9.80;5.33;;;;;;;21.99;59.50;100028.89;1767988;79;21140;-80
2021/06/29 02:44:25;;;;;;;8.80;5.47;;;;;;;22.04;59.57;100029.53;1764583;79;20894;-80
2021/06/29 02:46:50;;;;;;;10.17;5.83;;;;;;;21.90;59.94;100033.52;1757268;81;21263;-80
2021/06/29 02:49:16;;;;;;;11.53;5.58;;;;;;;21.82;60.05;100024.73;1759732;80;21150;-82
2021/06/29 02:51:42;;;;;;;10.50;5.78;;;;;;;21.74;60.14;100022.41;1754720;80;21038;-82
2021/06/29 02:54:08;;;;;;;10.75;6.05;;;;;;;21.77;60.32;100019.25;1760890;80;21087;-82
2021/06/29 02:56:39;;;;;;;8.35;5.70;;;;;;;21.73;60.76;100020.77;1767593;81;21636;-83
2021/06/29 02:59:10;;;;;;;8.88;5.17;;;;;;;21.75;60.52;100020.53;1766745;78;21768;-81
2021/06/29 03:01:36;;;;;;;8.05;5.40;;;;;;;21.77;60.64;100021.94;1782751;80;21105;-81
2021/06/29 03:04:02;;;;;;;6.87;5.08;;;;;;;21.77;60.69;100020.59;1771826;78;20870;-81
2021/06/29 03:06:28;;;;;;;7.75;5.78;;;;;;;22.20;59.26;100015.38;1760108;79;22090;-80
2021/06/29 03:08:54;;;;;;;6.42;4.97;;;;;;;22.18;59.16;100017.46;1747009;79;21414;-80
2021/06/29 03:11:20;;;;;;;8.40;5.65;;;;;;;22.19;59.09;100016.41;1756535;79;20990;-80
2021/06/29 03:13:45;;;;;;;7.95;5.12;;;;;;;22.01;59.54;100021.39;1750525;79;20875;-79
2021/06/29 03:16:11;;;;;;;8.88;5.75;;;;;;;22.04;59.64;100014.20;1752739;79;20869;-80
2021/06/29 03:18:38;;;;;;;10.50;5.28;;;;;;;22.02;59.66;100019.55;1754508;77;21060;-80
2021/06/29 03:21:06;;;;;;;8.98;5.35;;;;;;;21.97;60.16;100032.34;1758127;81;21067;-79
2021/06/29 03:23:32;;;;;;;10.72;5.92;;;;;;;21.88;60.47;100029.18;1779347;77;20980;-79
2021/06/29 03:25:57;;;;;;;9.08;5.60;;;;;;;21.83;60.30;100025.04;1816873;77;20923;-80
2021/06/29 03:28:23;;;;;;;7.53;5.22;;;;;;;21.78;60.66;100028.97;1825648;77;20879;-80
2021/06/29 03:30:49;;;;;;;9.40;5.78;;;;;;;21.92;60.43;100026.02;1815740;77;20967;-80
2021/06/29 03:33:15;;;;;;;7.60;5.35;;;;;;;21.92;60.43;100026.02;1826719;77;21039;-81
2021/06/29 03:35:41;;;;;;;7.25;5.37;;;;;;;22.08;60.37;100030.70;1802041;77;20974;-81
2021/06/29 03:38:06;;;;;;;14.75;5.67;;;;;;;22.03;59.88;100027.88;1828692;77;20841;-81
2021/06/29 03:40:32;;;;;;;6.95;5.00;;;;;;;21.96;59.79;100022.63;1766197;77;20902;-81
2021/06/29 03:42:58;;;;;;;8.93;4.78;;;;;;;22.04;59.65;100024.15;1777918;77;21071;-81
2021/06/29 03:45:24;;;;;;;10.48;5.47;;;;;;;22.12;59.26;100034.55;1814717;76;20930;-80
2021/06/29 03:47:50;;;;;;;8.23;5.00;;;;;;;22.11;59.25;100028.89;1795277;78;20928;-80
2021/06/29 03:50:15;;;;;;;7.70;5.08;;;;;;;22.17;58.95;100025.77;1775481;79;21067;-80
2021/06/29 03:52:41;;;;;;;7.75;4.92;;;;;;;22.33;58.69;100026.96;1767451;79;20889;-81
2021/06/29 03:55:08;;;;;;;10.28;5.33;;;;;;;22.44;58.49;100028.80;1774657;79;21082;-79
2021/06/29 03:57:34;;;;;;;8.43;5.08;;;;;;;22.63;58.49;100032.67;1753257;79;21220;-81
2021/06/29 03:59:59;;;;;;;9.18;4.97;;;;;;;22.70;58.18;100031.98;1762284;79;20939;-82
2021/06/29 04:02:27;;;;;;;9.63;5.45;;;;;;;22.75;57.64;100032.92;1761018;80;20904;-82
2021/06/29 04:04:54;;;;;;;7.67;4.92;;;;;;;22.81;57.33;100028.97;1764836;80;21609;-82
2021/06/29 04:07:21;;;;;;;8.38;5.05;;;;;;;22.81;57.05;100041.92;1804177;77;21147;-81
2021/06/29 04:09:47;;;;;;;7.55;5.10;;;;;;;23.01;56.72;100036.61;1832008;77;21043;-81
2021/06/29 04:12:14;;;;;;;9.15;4.62;;;;;;;23.04;56.13;100034.27;1819706;77;20900;-81
2021/06/29 04:14:39;;;;;;;;;;;;;;;23.14;55.67;100039.05;1829324;77;21070;-81
2021/06/29 04:17:05;;;;;;;8.55;4.65;;;;;;;23.28;55.09;100041.72;1817861;77;20584;-81
2021/06/29 04:19:31;;;;;;;8.68;5.20;;;;;;;23.29;55.02;100040.67;1820259;77;21168;-81
2021/06/29 04:21:57;;;;;;;6.58;4.42;;;;;;;23.26;54.97;100042.50;1802104;77;20904;-81
2021/06/29 04:24:22;;;;;;;8.30;4.45;;;;;;;23.35;54.75;100029.97;1761340;80;20991;-80
2021/06/29 04:26:48;;;;;;;7.35;4.62;;;;;;;23.47;54.23;100036.10;1752361;80;20932;-81
2021/06/29 04:29:14;;;;;;;6.83;4.50;;;;;;;23.58;54.22;100038.44;1767006;77;20870;-81
2021/06/29 04:31:40;;;;;;;7.08;4.72;;;;;;;23.64;54.03;100036.91;1782939;78;20912;-81
2021/06/29 04:34:05;;;;;;;7.53;4.42;;;;;;;23.68;54.01;100040.47;1773860;77;20891;-82
2021/06/29 04:36:31;;;;;;;7.45;4.60;;;;;;;23.78;53.82;100039.28;1776963;77;20890;-82
2021/06/29 04:38:57;;;;;;;8.65;4.72;;;;;;;23.81;53.50;100038.80;1781886;78;20950;-82
2021/06/29 04:41:23;;;;;;;7.87;4.87;;;;;;;23.78;53.64;100041.98;1755523;79;21047;-81
2021/06/29 04:43:49;;;;;;;9.78;4.70;;;;;;;23.81;53.84;100037.45;1766642;80;21100;-82
2021/06/29 04:46:15;;;;;;;6.35;4.62;;;;;;;23.83;53.95;100043.40;1731270;79;20894;-82
2021/06/29 04:48:41;;;;;;;8.03;4.85;;;;;;;24.06;53.65;100040.27;1775089;79;21048;-83
2021/06/29 04:51:07;;;;;;;8.13;4.62;;;;;;;24.12;53.29;100036.58;1767076;79;21079;-83
2021/06/29 04:53:33;;;;;;;6.55;4.22;;;;;;;24.15;53.34;100034.19;1766979;79;20892;-82
2021/06/29 04:55:59;;;;;;;6.40;4.40;;;;;;;24.27;53.06;100035.44;1734715;79;21909;-80
2021/06/29 04:58:25;;;;;;;8.15;4.53;;;;;;;24.25;52.82;100029.45;1770731;78;21653;-83
2021/06/29 05:00:50;;;;;;;6.45;4.30;;;;;;;24.33;53.08;100029.55;1822137;76;20878;-83
2021/06/29 05:03:17;;;;;;;6.60;4.37;;;;;;;24.52;53.17;100035.47;1819085;78;20879;-83
2021/06/29 05:05:43;;;;;;;6.12;4.08;;;;;;;24.54;53.03;100036.03;1808444;76;21090;-83
2021/06/29 05:08:11;;;;;;;7.58;4.50;;;;;;;24.41;53.26;100025.59;1814786;78;21853;-82
2021/06/29 05:10:37;;;;;;;8.10;4.28;;;;;;;24.58;53.14;100035.85;1818912;76;21062;-82
2021/06/29 05:13:02;;;;;;;7.75;4.97;;;;;;;24.49;53.29;100031.93;1818838;76;20906;-82
2021/06/29 05:15:28;;;;;;;9.13;4.75;;;;;;;24.57;53.52;100027.97;1818353;76;21982;-83
2021/06/29 05:17:54;;;;;;;7.33;4.35;;;;;;;24.62;52.95;100028.05;1783411;77;20893;-82
2021/06/29 05:20:20;;;;;;;10.43;4.33;;;;;;;24.69;52.33;100024.63;1770050;77;22007;-82
2021/06/29 05:22:45;;;;;;;6.80;4.28;;;;;;;24.65;53.20;100037.80;1761437;80;21363;-82
2021/06/29 05:25:12;;;;;;;6.92;4.53;;;;;;;24.74;53.15;100038.19;1759200;80;21285;-83
2021/06/29 05:27:39;;;;;;;9.35;4.95;;;;;;;24.82;53.26;100034.22;1763079;79;21558;-82
2021/06/29 05:30:07;;;;;;;6.35;4.28;;;;;;;24.79;53.45;100027.43;1767209;79;21809;-82
2021/06/29 05:32:32;;;;;;;7.58;4.10;;;;;;;24.85;53.02;100027.77;1768327;79;21534;-83
2021/06/29 05:34:58;;;;;;;7.45;4.35;;;;;;;24.85;52.86;100025.61;1761216;79;20878;-82
2021/06/29 05:37:24;;;;;;;7.65;4.30;;;;;;;24.99;52.96;100013.32;1752001;79;21050;-82
2021/06/29 05:39:50;;;;;;;7.10;4.40;;;;;;;25.09;52.31;100018.83;1749679;79;20953;-82
2021/06/29 05:42:15;;;;;;;8.68;4.22;;;;;;;25.09;52.46;100020.19;1766733;79;20885;-83
2021/06/29 05:44:41;;;;;;;6.12;3.90;;;;;;;25.33;52.29;100015.02;1765591;79;22100;-82
2021/06/29 05:47:09;;;;;;;7.08;4.17;;;;;;;25.39;52.04;100020.20;1767114;79;20833;-82
2021/06/29 05:49:35;;;;;;;10.90;4.45;;;;;;;25.43;51.69;100015.91;1756585;77;21025;-82
2021/06/29 05:52:00;;;;;;;6.30;3.90;;;;;;;25.46;51.97;100024.58;1756225;79;21523;-82
2021/06/29 05:54:26;;;;;;;8.98;4.03;;;;;;;25.63;51.55;100014.42;1786474;80;20899;-83
2021/06/29 05:56:52;;;;;;;7.17;4.10;;;;;;;25.63;51.84;100022.53;1789545;80;21031;-82
2021/06/29 05:59:18;;;;;;;5.75;3.77;;;;;;;25.63;51.49;100019.83;1761848;78;20949;-83
2021/06/29 06:01:44;;;;;;;8.95;4.03;;;;;;;25.82;51.11;100019.42;1760454;79;21091;-84
2021/06/29 06:04:10;;;;;;;7.55;3.90;;;;;;;25.88;50.79;100016.48;1755928;79;20890;-85
2021/06/29 06:06:36;;;;;;;5.72;3.75;;;;;;;26.11;50.80;100009.07;1760883;77;21065;-85
2021/06/29 06:09:02;;;;;;;8.18;3.85;;;;;;;26.18;50.27;100018.30;1767198;79;21009;-83
2021/06/29 06:11:28;;;;;;;7.15;3.45;;;;;;;26.06;50.00;100013.91;1765737;79;20910;-83
2021/06/29 06:13:53;;;;;;;8.03;4.00;;;;;;;26.38;49.31;100006.20;1765162;79;21133;-83
2021/06/29 06:16:19;;;;;;;8.60;3.98;;;;;;;26.45;49.26;100008.12;1754854;79;21429;-85
2021/06/29 06:18:45;;;;;;;7.08;3.40;;;;;;;26.55;49.29;100011.95;1768507;79;20918;-85
2021/06/29 06:21:11;;;;;;;6.00;3.40;;;;;;;26.55;47.70;99990.28;1755490;79;21157;-84
2021/06/29 06:23:37;;;;;;;7.00;3.50;;;;;;;26.55;47.70;99990.28;1760187;79;20878;-84
2021/06/29 06:26:02;;;;;;;12.82;3.25;;;;;;;26.82;46.97;100007.19;1759682;78;21012;-86
2021/06/29 06:28:28;;;;;;;7.37;3.37;;;;;;;26.97;47.00;100010.99;1752453;79;20902;-84
2021/06/29 06:30:54;;;;;;;4.33;3.10;;;;;;;26.92;47.05;100013.70;1747079;79;20996;-84
2021/06/29 06:33:21;;;;;;;8.13;3.40;;;;;;;26.89;46.85;100007.47;1767908;79;21081;-84
2021/06/29 06:35:48;;;;;;;5.87;3.00;;;;;;;27.02;46.55;100000.18;1773878;78;20987;-85
2021/06/29 06:38:13;;;;;;;8.75;3.27;;;;;;;27.00;45.79;100011.81;1754226;80;21020;-84
2021/06/29 06:40:39;;;;;;;6.28;3.20;;;;;;;27.14;46.37;100015.61;1765128;81;20955;-84
2021/06/29 06:43:05;;;;;;;6.58;3.60;;;;;;;27.15;46.33;100014.54;1757741;79;20873;-86
2021/06/29 06:45:31;;;;;;;5.37;2.98;;;;;;;27.29;45.61;100014.02;1767256;79;21071;-85
2021/06/29 06:47:56;;;;;;;4.03;3.17;;;;;;;27.39;45.35;100014.03;1763863;79;20876;-83
2021/06/29 06:50:23;;;;;;;5.15;3.37;;;;;;;27.19;45.42;100020.23;1765160;80;20904;-84
2021/06/29 06:52:49;;;;;;;7.35;3.22;;;;;;;27.34;45.24;100018.11;1765562;79;21023;-83
2021/06/29 06:55:18;;;;;;;9.68;3.55;;;;;;;27.69;45.03;100016.47;1765676;79;21576;-83
2021/06/29 06:57:42;;;;;;;7.45;3.30;;;;;;;27.75;45.17;100014.02;1772105;79;21162;-82
2021/06/29 07:00:10;;;;;;;4.87;3.30;;;;;;;27.80;45.04;100018.07;1750711;78;20909;-85
2021/06/29 07:02:37;;;;;;;7.75;3.30;;;;;;;27.76;44.44;100018.34;1741443;81;21119;-84
2021/06/29 07:05:05;;;;;;;12.15;3.20;;;;;;;27.82;44.66;100016.44;1729864;81;21051;-80
2021/06/29 07:07:31;;;;;;;6.03;3.15;;;;;;;27.95;44.26;100018.59;1756496;78;21051;-84
2021/06/29 07:09:57;;;;;;;5.10;2.80;;;;;;;27.90;43.90;100016.67;1769083;80;21085;-83
2021/06/29 07:12:22;;;;;;;7.87;3.30;;;;;;;27.99;43.13;100010.73;1756312;80;20960;-85
2021/06/29 07:14:48;;;;;;;8.35;2.92;;;;;;;28.01;43.28;100009.91;1769200;80;20920;-88
2021/06/29 07:17:14;;;;;;;4.90;3.12;;;;;;;27.94;43.25;100006.91;1764045;80;21097;-84
2021/06/29 07:19:40;;;;;;;6.65;2.85;;;;;;;27.98;43.23;99999.59;1759700;79;21019;-85
2021/06/29 07:22:06;;;;;;;6.27;2.83;;;;;;;27.97;43.17;100003.39;1774253;78;21067;-81
2021/06/29 07:24:31;;;;;;;8.10;3.35;;;;;;;28.27;42.79;100001.93;1757668;80;20951;-81
2021/06/29 07:26:57;;;;;;;6.00;3.10;;;;;;;28.46;42.86;99998.06;1764137;79;20924;-83
2021/06/29 07:29:23;;;;;;;4.47;2.62;;;;;;;28.47;42.57;99994.80;1758089;81;21057;-84
2021/06/29 07:31:49;;;;;;;4.28;2.75;;;;;;;28.50;41.36;100002.38;1762798;81;21286;-83
2021/06/29 07:34:15;;;;;;;3.87;3.00;;;;;;;28.34;41.87;100004.37;1762275;81;20996;-83
2021/06/29 07:36:41;;;;;;;5.62;3.22;;;;;;;28.32;41.50;100008.44;1775182;77;20887;-84
2021/06/29 07:39:06;;;;;;;6.97;2.90;;;;;;;28.29;41.43;100016.06;1786869;78;29089;-86
2021/06/29 07:41:32;;;;;;;7.70;2.58;;;;;;;28.59;41.16;100003.45;1760833;80;20979;-87
2021/06/29 07:43:58;;;;;;;5.63;3.07;;;;;;;28.63;41.45;100001.78;1748260;79;21061;-88
2021/06/29 07:46:25;;;;;;;7.35;3.10;;;;;;;28.52;41.36;100006.98;1753948;79;21066;-88
2021/06/29 07:48:52;;;;;;;7.80;3.30;;;;;;;28.52;41.45;100004.27;1754378;81;21561;-85
2021/06/29 07:51:17;;;;;;;7.62;2.80;;;;;;;28.63;41.75;99998.27;1762250;78;21263;-85
2021/06/29 07:53:43;;;;;;;5.13;2.83;;;;;;;28.67;41.82;100001.22;1774762;78;20852;-85
2021/06/29 07:56:14;;;;;;;4.33;2.75;;;;;;;28.67;41.60;100000.70;1776857;78;20986;-87
2021/06/29 07:58:36;;;;;;;4.95;2.87;;;;;;;28.73;40.46;100002.81;1778780;78;21559;-86
2021/06/29 08:01:02;;;;;;;4.17;2.70;;;;;;;28.59;40.00;100014.33;1762771;78;21710;-87
2021/06/29 08:03:28;;;;;;;5.37;2.77;;;;;;;28.30;40.28;100016.31;1759070;80;20916;-88
2021/06/29 08:05:58;;;;;;;5.08;2.62;;;;;;;28.50;39.77;100013.25;1758652;81;20948;-85
2021/06/29 08:08:22;;;;;;;3.75;2.67;;;;;;;28.69;39.59;100008.02;1751331;81;21060;-88
2021/06/29 08:10:49;;;;;;;3.30;2.40;;;;;;;28.78;39.72;100002.80;1764492;81;21082;-90
2021/06/29 08:13:15;;;;;;;4.08;2.70;;;;;;;28.92;39.68;100003.80;1762678;80;21024;-94
2021/06/29 08:15:41;;;;;;;3.47;2.53;;;;;;;28.82;39.61;100012.00;1763688;80;25171;-90
2021/06/29 08:18:07;;;;;;;3.92;2.75;;;;;;;28.68;39.17;100005.58;1767755;80;21076;-91
2021/06/29 08:20:32;;;;;;;4.17;2.67;;;;;;;28.73;38.28;99999.57;1765757;78;20983;-89
2021/06/29 08:22:58;;;;;;;3.60;2.87;;;;;;;28.42;38.55;100004.33;1765061;78;21184;-87
2021/06/29 08:25:24;;;;;;;5.58;2.85;;;;;;;28.72;38.83;100003.93;1764025;80;21081;-94
2021/06/29 08:27:50;;;;;;;5.30;2.97;;;;;;;28.81;39.13;100004.96;1763655;81;27953;-92
2021/06/29 08:30:18;;;;;;;8.50;3.00;;;;;;;28.99;39.17;100003.46;1765067;78;21008;-86
2021/06/29 08:32:43;;;;;;;;;;;;;;;29.07;39.68;99999.33;1757370;79;21025;-90
2021/06/29 08:35:10;;;;;;;3.33;2.77;;;;;;;29.05;38.28;100002.89;1749362;79;21940;-83
2021/06/29 08:37:37;;;;;;;4.25;2.77;;;;;;;29.29;38.23;100002.45;1771954;79;21028;-91
2021/06/29 08:40:06;;;;;;;5.00;2.85;;;;;;;29.39;37.72;99993.95;1760326;79;21131;-91
2021/06/29 08:42:34;;;;;;;4.80;2.70;;;;;;;29.46;37.80;99995.77;1757081;79;21170;-90
2021/06/29 08:45:01;;;;;;;4.05;2.90;;;;;;;29.66;37.75;99992.87;1750617;79;21099;-90
2021/06/29 08:47:27;;;;;;;5.00;2.70;;;;;;;29.81;37.69;99993.84;1760402;80;21357;-90
2021/06/29 08:49:53;;;;;;;5.17;2.70;;;;;;;29.71;37.44;99990.09;1757394;80;21000;-92
2021/06/29 08:52:18;;;;;;;3.17;2.57;;;;;;;29.59;36.54;100008.72;1757004;79;21249;-88
2021/06/29 08:54:44;;;;;;;5.13;2.60;;;;;;;29.49;36.51;99999.28;1759231;80;20975;-89
2021/06/29 08:57:10;;;;;;;5.77;2.70;;;;;;;29.44;36.14;99995.25;1764878;80;22257;-88
2021/06/29 08:59:36;;;;;;;6.63;2.40;;;;;;;29.49;35.83;99989.75;1758998;79;21214;-88
2021/06/29 09:02:03;;;;;;;4.50;2.70;;;;;;;29.34;35.42;99992.89;1759166;78;28357;-86
2021/06/29 09:04:50;;;;;;;;;;;;;;;29.47;35.96;99996.04;1778506;79;21371;-89
2021/06/29 09:07:23;;;;;;;4.10;2.50;;;;;;;29.35;36.10;99989.08;1764221;79;20156;-86
2021/06/29 09:09:55;;;;;;;3.67;2.55;;;;;;;29.56;35.77;99979.36;1779399;78;21236;-87
2021/06/29 09:12:49;;;;;;;3.75;2.47;;;;;;;29.67;35.84;99972.70;1807980;76;21696;-85
2021/06/29 09:15:44;;;;;;;4.12;2.37;;;;;;;29.77;36.47;99977.25;1815591;78;20910;-83
2021/06/29 09:18:18;;;;;;;3.33;2.35;;;;;;;29.64;34.63;99971.92;1818787;78;21053;-85
2021/06/29 09:21:01;;;;;;;3.65;2.40;;;;;;;29.63;33.53;99968.95;1815140;76;20935;-86
2021/06/29 09:23:38;;;;;;;5.53;2.20;;;;;;;29.60;33.98;99969.53;1810988;77;21577;-85
2021/06/29 09:26:11;;;;;;;3.80;2.33;;;;;;;29.60;32.83;99964.09;1799701;77;21129;-85
2021/06/29 09:28:41;;;;;;;4.17;2.33;;;;;;;29.48;33.74;99975.35;1753686;80;21578;-83
2021/06/29 09:31:18;;;;;;;6.40;2.80;;;;;;;29.56;34.36;99973.91;1760669;81;20996;-84
2021/06/29 09:33:53;;;;;;;3.02;2.35;;;;;;;29.75;34.85;99977.27;1760250;80;21443;-84
2021/06/29 09:36:22;;;;;;;4.03;2.62;;;;;;;29.56;33.52;99977.20;1758126;80;21051;-84
2021/06/29 09:38:49;;;;;;;4.70;2.40;;;;;;;29.77;33.79;99979.14;1762523;80;21345;-84
2021/06/29 09:41:19;;;;;;;;;;;;;;;29.70;33.55;99978.93;1765997;81;21696;-83
2021/06/29 09:43:47;;;;;;;2.83;2.27;;;;;;;29.90;34.13;99966.23;1756033;79;20288;-84
2021/06/29 09:46:16;;;;;;;3.45;2.40;;;;;;;30.08;34.35;99962.75;1747407;79;21117;-83
2021/06/29 09:48:56;;;;;;;4.97;2.50;;;;;;;30.06;34.52;99960.89;1767061;79;21043;-84
2021/06/29 09:51:29;;;;;;;6.35;2.80;;;;;;;29.79;34.44;99963.35;1759087;80;21371;-86
2021/06/29 09:53:59;;;;;;;2.90;2.08;;;;;;;29.78;34.45;99964.44;1782526;77;21101;-84
2021/06/29 09:56:30;;;;;;;3.17;2.40;;;;;;;30.14;34.30;99958.03;1786125;77;21040;-87
2021/06/29 09:58:58;;;;;;;4.67;2.62;;;;;;;29.79;34.56;99964.16;1786796;78;21037;-89
2021/06/29 10:01:29;;;;;;;3.42;2.42;;;;;;;30.01;34.18;99958.20;1779684;80;21222;-86
2021/06/29 10:04:00;;;;;;;5.30;2.60;;;;;;;30.18;34.17;99959.64;1777470;78;21096;-83
2021/06/29 10:06:29;;;;;;;6.30;2.70;;;;;;;30.26;34.09;99947.53;1776055;79;21033;-83
2021/06/29 10:09:14;;;;;;;3.62;2.50;;;;;;;30.26;33.92;99950.25;1774421;80;21018;-84
2021/06/29 10:11:43;;;;;;;4.47;2.60;;;;;;;30.22;33.83;99955.22;1774245;79;21153;-87
2021/06/29 10:14:15;;;;;;;4.10;2.60;;;;;;;30.28;34.08;99943.71;1781246;77;21003;-85
2021/06/29 10:16:46;;;;;;;4.17;2.52;;;;;;;30.26;34.35;99952.17;1813961;77;21018;-87
2021/06/29 10:19:17;;;;;;;6.35;2.65;;;;;;;30.17;34.35;99952.56;1764729;77;20983;-87
2021/06/29 10:21:49;;;;;;;4.92;2.50;;;;;;;30.11;33.87;99948.28;1771879;78;21042;-86
2021/06/29 10:24:20;;;;;;;4.37;2.55;;;;;;;30.23;33.51;99939.94;1774474;79;21626;-85
2021/06/29 10:26:49;;;;;;;6.25;2.55;;;;;;;30.19;33.60;99931.28;1782970;80;36246;-85
2021/06/29 10:29:17;;;;;;;3.77;2.50;;;;;;;29.96;34.38;99922.08;1784421;80;21284;-86
2021/06/29 10:31:47;;;;;;;6.80;2.95;;;;;;;30.26;34.15;99930.38;1789216;78;20962;-86
2021/06/29 10:34:13;;;;;;;2.98;2.47;;;;;;;30.29;34.20;99929.80;1770066;78;21134;-86
2021/06/29 10:36:42;;;;;;;3.30;2.50;;;;;;;30.43;34.12;99927.98;1757591;79;21058;-85
2021/06/29 10:39:11;;;;;;;3.33;2.50;;;;;;;30.25;34.30;99931.48;1796258;77;21131;-85
2021/06/29 10:41:43;;;;;;;3.30;2.42;;;;;;;30.33;33.96;99906.32;1822990;76;21056;-85
2021/06/29 10:44:12;;;;;;;3.42;2.60;;;;;;;30.02;33.79;99908.09;1818571;78;21021;-85
2021/06/29 10:46:49;;;;;;;4.45;2.40;;;;;;;30.26;33.91;99906.67;1749926;77;21014;-85
2021/06/29 10:49:38;;;;;;;4.42;2.33;;;;;;;30.31;33.36;99930.87;1767731;79;21016;-85
2021/06/29 10:52:07;;;;;;;3.90;2.50;;;;;;;30.40;32.75;99920.39;1766152;79;21051;-85
2021/06/29 10:54:54;;;;;;;2.62;1.92;;;;;;;30.71;32.69;99915.85;1780517;79;21285;-85
2021/06/29 10:57:42;;;;;;;3.33;2.40;;;;;;;30.78;31.92;99894.48;1766938;78;21366;-84
2021/06/29 11:00:23;;;;;;;4.47;2.33;;;;;;;30.99;31.61;99914.62;1747511;79;21163;-84
2021/06/29 11:03:03;;;;;;;5.42;2.60;;;;;;;30.79;32.33;99935.65;1756872;79;21122;-84
2021/06/29 11:05:42;;;;;;;4.70;2.70;;;;;;;30.64;33.41;99931.80;1771068;79;21000;-85
2021/06/29 11:08:17;;;;;;;5.67;2.70;;;;;;;30.64;33.27;99927.70;1753719;79;21237;-83
2021/06/29 11:10:45;;;;;;;4.30;2.52;;;;;;;30.39;33.16;99921.52;1775974;80;21026;-84
2021/06/29 11:13:11;;;;;;;3.77;2.62;;;;;;;30.71;32.56;99915.85;1765807;78;21105;-84
2021/06/29 11:15:54;;;;;;;4.28;2.67;;;;;;;30.88;32.73;99911.78;1755778;79;20997;-84
2021/06/29 11:18:33;;;;;;;2.92;2.50;;;;;;;30.87;32.19;99910.95;1762789;78;20998;-84
2021/06/29 11:20:59;;;;;;;3.65;2.52;;;;;;;31.20;31.55;99915.62;1746183;79;21140;-84
2021/06/29 11:23:32;;;;;;;4.07;2.30;;;;;;;31.36;31.71;99901.97;1744688;79;21120;-84
2021/06/29 11:26:01;;;;;;;4.00;2.60;;;;;;;31.25;31.53;99896.45;1768947;79;21086;-83
2021/06/29 11:28:34;;;;;;;6.67;2.60;;;;;;;31.48;31.55;99896.02;1772562;78;20960;-84
2021/06/29 11:31:33;;;;;;;3.27;2.40;;;;;;;31.38;31.28;99890.19;1777453;79;21228;-84